Terminal Aerodrome Forecast
Issued by NWS Hastings, NE

Home | Current Version | Previous Version | Text Only | Print | Product List | Glossary On
Versions: 1 2 3 4 5 6 7 8 9 10 11 12 13 14 15 16
844
FTUS45 KGID 111736
TAFEAR
TAF
KEAR 111736Z 1118/1218 02004KT 5SM BR OVC005
     FM112100 21011KT P6SM SCT005 OVC025
     FM120200 35008KT P6SM SCT005 OVC015
     FM120500 35008KT 3SM BR OVC005
     FM121500 36012KT P6SM SCT005 BKN015
      AMD LTD TO CLD VIS AND WIND=

USA.gov is the U.S. government's official web portal to all federal, state and local government web resources and services.